METAR AND TAF INFORMATION
METAR FOR LGIO
ADDS - METARS form results

(0635 UTC 15 September 2019)
Data provider http://aviationweather.gov/metar/data/
 
METAR text: LGIO 150620Z 14005KT CAVOK 24/06 Q1024
Conditions at: LGIO (IOANNINA , GR) observed 0620 UTC 15 September 2019
Temperature: 24.0°C (75°F)
Dewpoint: 6.0°C (43°F) [RH = 31%]
Pressure (altimeter): 30.24 inches Hg (1024.0 mb)
Winds: from the SE (140 degrees) at 6 MPH (5 knots; 2.6 m/s)
Visibility: 6 or more miles (10+ km)
Ceiling: ceiling and visibility are OK
Clouds: unknown
Weather: no significant weather observed at this time

METAR text: LGIO 150550Z 08004KT CAVOK 24/07 Q1023
Conditions at: LGIO (IOANNINA , GR) observed 0550 UTC 15 September 2019
Temperature: 24.0°C (75°F)
Dewpoint: 7.0°C (45°F) [RH = 34%]
Pressure (altimeter): 30.21 inches Hg (1023.0 mb)
Winds: from the E (80 degrees) at 5 MPH (4 knots; 2.1 m/s)
Visibility: 6 or more miles (10+ km)
Ceiling: ceiling and visibility are OK
Clouds: unknown
Weather: no significant weather observed at this time

Forecast for: LGIO (IOANNINA , GR)
Text: TAF LGIO 150500Z 1506/1515 05010KT CAVOK
Forecast period: 0600 to 1500 UTC 15 September 2019
Forecast type: FROM: standard forecast or significant change
Winds: from the NE (50 degrees) at 12 MPH (10 knots; 5.1 m/s)
Visibility: 6 or more miles 10+ km)
Ceiling: unknown
Clouds: missing
Weather: NSW  (no significant weather)

 ΧΑΡΤΗΣ ΑΕΡΟΔΡΟΜΙΟΥ

 RUNWAY INFORMATION
Διάδρομος 14 Runway length 7874 ft Runway width 148 ft
Runway elevation 1550 ft Runway displaced threshold 0 ft Runway heading 142
Διάδρομος 32 Runway length 7874 ft Runway width 148 ft
Runway elevation 1558 ft Runway displaced threshold 394 ft Runway heading 322

 ΣΥΧΝΟΤΗΤΕΣ ΑΕΡΟΔΡΟΜΙΟΥ
Τύπος A/D Όνομα APP Συχνότητα 118.6 MHZ
Τύπος A/G Όνομα RDO Συχνότητα 563.7 MHZ
Τύπος AFIS Όνομα AFIS Συχνότητα 132.2 MHZ
Τύπος TWR Όνομα TWR Συχνότητα 132.2 MHZ

 AIRPORT NEAR NAVIGATION AIDS
Τύπος NDB Όνομα Ioannina Συχνότητα 340 KHZ
Τύπος VOR-DME Όνομα Ioannina Συχνότητα 108600 KHZ



Hellenic Air Force Virtual - All rights reserved 2019 - Powered by VAM